createdAt,value
2022-10-26T00:01:48.861Z,98493.06
2022-10-26T00:06:50.752Z,98495.69
2022-10-26T00:11:53.007Z,98492.50
2022-10-26T00:16:55.102Z,98500.22
2022-10-26T00:21:56.854Z,98505.53
2022-10-26T00:26:58.621Z,98515.19
2022-10-26T00:32:00.589Z,98507.69
2022-10-26T00:37:02.374Z,98513.00
2022-10-26T00:42:04.350Z,98510.72
2022-10-26T00:47:06.528Z,98511.59
2022-10-26T00:52:09.393Z,98508.38
2022-10-26T00:57:13.825Z,98506.03
2022-10-26T01:02:15.800Z,98515.59
2022-10-26T01:07:17.772Z,98507.22
2022-10-26T01:12:19.583Z,98512.44
2022-10-26T01:17:57.112Z,98499.81
2022-10-26T01:23:19.196Z,98505.97
2022-10-26T01:28:47.034Z,98493.38
2022-10-26T01:34:04.087Z,98492.38
2022-10-26T01:39:09.048Z,98500.81
2022-10-26T01:44:16.797Z,98493.78
2022-10-26T01:49:23.124Z,98497.69
2022-10-26T01:54:24.976Z,98496.09
2022-10-26T01:59:45.705Z,98500.41
2022-10-26T02:04:55.847Z,98500.81
2022-10-26T02:10:09.842Z,98500.69
2022-10-26T02:15:27.185Z,98496.03
2022-10-26T02:20:33.933Z,98483.53
2022-10-26T02:25:42.194Z,98484.94
2022-10-26T02:30:45.523Z,98483.00
2022-10-26T02:35:50.994Z,98478.78
2022-10-26T02:40:54.524Z,98480.81
2022-10-26T02:46:14.026Z,98476.78
2022-10-26T02:51:34.832Z,98475.47
2022-10-26T02:56:51.737Z,98479.13
2022-10-26T03:01:54.163Z,98475.63
2022-10-26T03:06:55.989Z,98474.25
2022-10-26T03:11:57.780Z,98485.84
2022-10-26T03:16:59.599Z,98491.06
2022-10-26T03:22:01.395Z,98477.84
2022-10-26T03:27:03.285Z,98483.91
2022-10-26T03:32:05.467Z,98472.16
2022-10-26T03:37:07.261Z,98480.59
2022-10-26T03:42:09.069Z,98484.28
2022-10-26T03:47:10.848Z,98481.75
2022-10-26T03:52:12.668Z,98480.19
2022-10-26T03:57:14.462Z,98474.84
2022-10-26T04:02:16.517Z,98481.59
2022-10-26T04:07:18.376Z,98488.75
2022-10-26T04:12:20.241Z,98484.22
2022-10-26T04:17:22.022Z,98474.50
2022-10-26T04:22:23.837Z,98477.03
2022-10-26T04:27:25.623Z,98485.44
2022-10-26T04:32:27.636Z,98483.19
2022-10-26T04:37:29.482Z,98475.47
2022-10-26T04:42:37.742Z,98469.97
2022-10-26T04:47:39.760Z,98466.97
2022-10-26T04:52:41.622Z,98464.53
2022-10-26T04:57:45.144Z,98459.78
2022-10-26T05:02:46.987Z,98467.03
2022-10-26T05:07:56.940Z,98452.75
2022-10-26T05:13:00.288Z,98457.41
2022-10-26T05:18:05.550Z,98451.47
2022-10-26T05:23:11.590Z,98448.56
2022-10-26T05:28:14.980Z,98454.69
2022-10-26T05:33:16.927Z,98454.44
2022-10-26T05:38:18.781Z,98452.59
2022-10-26T05:43:23.220Z,98454.88
2022-10-26T05:48:25.010Z,98465.72
2022-10-26T05:53:27.136Z,98465.47
2022-10-26T05:58:29.238Z,98465.19
2022-10-26T06:03:56.914Z,98476.88
2022-10-26T06:08:58.981Z,98477.53
2022-10-26T06:14:01.333Z,98481.22
2022-10-26T06:19:21.644Z,98481.19
2022-10-26T06:24:29.585Z,98485.28
2022-10-26T06:29:54.679Z,98497.50
2022-10-26T06:35:06.921Z,98504.44
2022-10-26T06:40:11.211Z,98502.31
2022-10-26T06:50:21.516Z,98510.25
2022-10-26T06:55:23.841Z,98513.06
2022-10-26T07:00:26.099Z,98508.56
2022-10-26T07:05:28.252Z,98516.69
2022-10-26T07:10:30.258Z,98516.59
2022-10-26T07:15:32.601Z,98512.97
2022-10-26T07:20:39.644Z,98510.78
2022-10-26T07:25:41.833Z,98515.94
2022-10-26T07:30:43.728Z,98517.06
2022-10-26T07:35:46.666Z,98515.00
2022-10-26T07:40:50.725Z,98521.97
2022-10-26T07:45:52.761Z,98529.56
2022-10-26T07:50:54.843Z,98521.13
2022-10-26T07:55:58.004Z,98521.47
2022-10-26T08:01:07.659Z,98519.50
2022-10-26T08:06:10.626Z,98523.56
2022-10-26T08:11:12.470Z,98531.59
2022-10-26T08:16:14.469Z,98531.06
2022-10-26T08:21:21.797Z,98520.34
2022-10-26T08:26:28.374Z,98531.81
2022-10-26T08:31:30.489Z,98520.53
2022-10-26T08:36:32.332Z,98529.94
2022-10-26T08:41:38.012Z,98518.25
2022-10-26T08:46:45.762Z,98524.47
2022-10-26T08:51:51.105Z,98516.69
2022-10-26T08:56:57.562Z,98520.59
2022-10-26T09:02:04.812Z,98524.91
2022-10-26T09:07:26.283Z,98521.38
2022-10-26T09:12:52.401Z,98534.28
2022-10-26T09:18:12.998Z,98533.84
2022-10-26T09:23:42.085Z,98540.03
2022-10-26T09:28:48.251Z,98537.63
2022-10-26T09:33:51.600Z,98541.53
2022-10-26T09:39:22.507Z,98536.84
2022-10-26T09:44:45.053Z,98544.75
2022-10-26T09:49:55.920Z,98540.94
2022-10-26T09:54:57.710Z,98548.78
2022-10-26T09:59:59.632Z,98540.09
2022-10-26T10:05:02.075Z,98538.09
2022-10-26T10:10:17.080Z,98535.22
2022-10-26T10:15:24.133Z,98532.72
2022-10-26T10:20:32.846Z,98526.66
2022-10-26T10:25:37.729Z,98524.47
2022-10-26T10:30:53.561Z,98522.28
2022-10-26T10:35:55.409Z,98518.50
2022-10-26T10:40:59.817Z,98517.31
2022-10-26T10:46:01.832Z,98520.25
2022-10-26T10:51:12.585Z,98521.72
2022-10-26T10:56:27.722Z,98513.59
2022-10-26T11:01:40.814Z,98509.47
2022-10-26T11:06:45.166Z,98509.72
2022-10-26T11:12:10.378Z,98508.38
2022-10-26T11:17:25.870Z,98511.78
2022-10-26T11:22:59.414Z,98516.84
2022-10-26T11:28:16.620Z,98516.94
2022-10-26T11:33:31.152Z,98513.72
2022-10-26T11:38:59.940Z,98520.19
2022-10-26T11:44:22.339Z,98519.00
2022-10-26T11:49:43.002Z,98524.53
2022-10-26T11:54:53.447Z,98526.47
2022-10-26T11:59:57.522Z,98529.06
2022-10-26T12:05:08.244Z,98529.56
2022-10-26T12:10:26.087Z,98540.66
2022-10-26T12:16:05.910Z,98522.22
2022-10-26T12:21:09.835Z,98538.72
2022-10-26T12:26:34.701Z,98536.72
2022-10-26T12:31:36.455Z,98547.81
2022-10-26T12:36:56.685Z,98540.38
2022-10-26T12:42:04.458Z,98542.91
2022-10-26T12:47:06.654Z,98539.13
2022-10-26T12:52:19.938Z,98526.69
2022-10-26T12:57:55.826Z,98539.78
2022-10-26T13:03:22.166Z,98538.91
2022-10-26T13:08:24.844Z,98544.91
2022-10-26T13:13:26.996Z,98556.56
2022-10-26T13:18:30.113Z,98554.34
2022-10-26T13:23:34.941Z,98536.94
2022-10-26T13:28:39.779Z,98543.03
2022-10-26T13:33:43.454Z,98538.16
2022-10-26T13:38:47.266Z,98531.09
2022-10-26T13:43:51.595Z,98541.13
2022-10-26T13:49:01.633Z,98548.34
2022-10-26T13:54:14.255Z,98551.31
2022-10-26T13:59:16.260Z,98556.81
2022-10-26T14:04:28.745Z,98562.13
2022-10-26T14:09:31.184Z,98559.53
2022-10-26T14:14:36.371Z,98545.34
2022-10-26T14:19:40.963Z,98550.31
2022-10-26T14:24:52.027Z,98553.56
2022-10-26T14:30:22.147Z,98552.63
2022-10-26T14:35:18.416Z,98561.31
2022-10-26T14:40:23.823Z,98558.16
2022-10-26T14:45:50.441Z,98569.25
2022-10-26T14:51:03.881Z,98577.88
2022-10-26T14:56:18.175Z,98580.66
2022-10-26T15:01:23.123Z,98587.78
2022-10-26T15:06:28.275Z,98581.69
2022-10-26T15:11:32.187Z,98571.66
2022-10-26T15:16:35.291Z,98582.97
2022-10-26T15:21:41.708Z,98583.34
2022-10-26T15:26:43.790Z,98587.50
2022-10-26T15:31:45.623Z,98598.66
2022-10-26T15:36:47.433Z,98597.25
2022-10-26T15:41:49.523Z,98592.72
2022-10-26T15:46:51.467Z,98595.19
2022-10-26T15:51:53.471Z,98604.75
2022-10-26T15:56:56.257Z,98602.50
2022-10-26T16:01:58.340Z,98606.53
2022-10-26T16:07:05.485Z,98620.72
2022-10-26T16:12:11.730Z,98614.09
2022-10-26T16:17:13.591Z,98625.53
2022-10-26T16:22:15.427Z,98627.59
2022-10-26T16:27:17.547Z,98628.41
2022-10-26T16:32:19.372Z,98630.81
2022-10-26T16:37:21.187Z,98639.88
2022-10-26T16:42:22.974Z,98644.66
2022-10-26T16:47:25.664Z,98646.66
2022-10-26T16:52:27.467Z,98660.41
2022-10-26T16:57:29.337Z,98654.50
2022-10-26T17:02:31.240Z,98657.66
2022-10-26T17:07:33.241Z,98662.38
2022-10-26T17:12:35.063Z,98671.41
2022-10-26T17:17:36.912Z,98673.31
2022-10-26T17:22:38.782Z,98672.53
2022-10-26T17:27:44.877Z,98672.13
2022-10-26T17:32:48.897Z,98691.38
2022-10-26T17:37:51.140Z,98700.81
2022-10-26T17:42:53.595Z,98715.72
2022-10-26T17:47:55.898Z,98718.81
2022-10-26T17:52:57.718Z,98726.66
2022-10-26T17:57:59.580Z,98729.03
2022-10-26T18:03:01.369Z,98740.78
2022-10-26T18:08:03.529Z,98737.66
2022-10-26T18:13:05.354Z,98749.41
2022-10-26T18:18:07.157Z,98755.72
2022-10-26T18:23:09.109Z,98766.69
2022-10-26T18:33:13.770Z,98765.09
2022-10-26T18:38:15.561Z,98778.47
2022-10-26T18:43:17.414Z,98778.06
2022-10-26T18:48:19.408Z,98789.81
2022-10-26T18:53:21.378Z,98794.16
2022-10-26T18:58:23.242Z,98787.88
2022-10-26T19:03:25.020Z,98803.56
2022-10-26T19:08:27.993Z,98809.03
2022-10-26T19:13:30.625Z,98809.00
2022-10-26T19:18:33.302Z,98814.50
2022-10-26T19:23:38.266Z,98825.47
2022-10-26T19:28:40.659Z,98838.00
2022-10-26T19:33:42.523Z,98842.69
2022-10-26T19:38:44.741Z,98843.44
2022-10-26T19:43:46.625Z,98863.78
2022-10-26T19:48:54.103Z,98855.13
2022-10-26T19:53:57.951Z,98862.94
2022-10-26T19:59:03.365Z,98866.06
2022-10-26T20:04:06.359Z,98864.13
2022-10-26T20:09:08.324Z,98866.84
2022-10-26T20:14:13.765Z,98881.69
2022-10-26T20:19:15.598Z,98889.91
2022-10-26T20:24:17.413Z,98892.59
2022-10-26T20:29:19.949Z,98892.16
2022-10-26T20:34:21.931Z,98901.81
2022-10-26T20:39:24.393Z,98905.97
2022-10-26T20:44:31.877Z,98894.63
2022-10-26T20:49:33.890Z,98902.47
2022-10-26T20:54:48.206Z,98899.31
2022-10-26T20:59:56.031Z,98906.34
2022-10-26T21:04:58.018Z,98926.69
2022-10-26T21:09:59.933Z,98930.94
2022-10-26T21:15:01.839Z,98927.34
2022-10-26T21:20:03.815Z,98932.00
2022-10-26T21:25:06.067Z,98931.22
2022-10-26T21:30:08.589Z,98937.16
2022-10-26T21:35:10.500Z,98939.44
2022-10-26T21:40:13.366Z,98941.38
2022-10-26T21:45:15.185Z,98951.56
2022-10-26T21:50:17.178Z,98948.53
2022-10-26T21:55:19.053Z,98954.00
2022-10-26T22:00:20.886Z,98958.72
2022-10-26T22:05:22.727Z,98967.31
2022-10-26T22:10:24.584Z,98969.69
2022-10-26T22:15:26.375Z,98968.84
2022-10-26T22:20:28.171Z,98964.16
2022-10-26T22:25:32.214Z,98957.56
2022-10-26T22:30:36.860Z,98958.75
2022-10-26T22:35:38.669Z,98966.59
2022-10-26T22:40:40.418Z,98964.97
2022-10-26T22:45:42.156Z,98966.53
2022-10-26T22:50:43.915Z,98965.69
2022-10-26T22:55:45.936Z,98975.09
2022-10-26T23:00:47.736Z,98977.50
2022-10-26T23:05:49.600Z,98983.75
2022-10-26T23:10:51.494Z,98990.84
2022-10-26T23:15:53.262Z,99000.22
2022-10-26T23:20:55.036Z,99005.66
2022-10-26T23:26:04.260Z,99004.94
2022-10-26T23:31:06.827Z,99011.94
2022-10-26T23:36:08.560Z,99021.72
2022-10-26T23:41:12.842Z,99017.44
2022-10-26T23:46:15.118Z,99014.69
2022-10-26T23:51:16.907Z,99024.34
2022-10-26T23:56:18.648Z,99020.31
